Time;durP1;ratioP1;P1;durP2;ratioP2;P2;SDS_P1;SDS_P2;PMS_P1;PMS_P2;Temp;Humidity;BMP_temperature;BMP_pressure;BME280_temperature;BME280_humidity;BME280_pressure;Samples;Min_cycle;Max_cycle;Signal;HPM_P1;HPM_P2
2021/09/26 00:00:15;;;;;;;;;;;;;;;17.80;71.20;96992.31;30001;983;1876;-62
2021/09/26 00:00:46;;;;;;;;;;;;;;;17.81;71.16;96978.25;30001;983;1880;-62
2021/09/26 00:01:17;;;;;;;;;;;;;;;17.83;70.95;96984.19;30001;982;1876;-61
2021/09/26 00:01:50;;;;;;;;;;;;;;;17.81;71.53;96986.47;30001;982;1858;-62
2021/09/26 00:02:21;;;;;;;;;;;;;;;17.81;71.24;96985.66;30001;982;1872;-65
2021/09/26 00:02:52;;;;;;;;;;;;;;;17.85;71.84;96987.41;30001;982;1880;-62
2021/09/26 00:03:23;;;;;;;;;;;;;;;17.87;71.24;96984.31;30001;983;1875;-61
2021/09/26 00:03:54;;;;;;;;;;;;;;;17.86;71.58;96986.28;30001;983;1880;-61
2021/09/26 00:04:27;;;;;;;;;;;;;;;17.86;71.33;96983.53;30001;983;1875;-62
2021/09/26 00:04:58;;;;;;;;;;;;;;;17.85;71.53;96979.19;30001;983;1880;-60
2021/09/26 00:05:29;;;;;;;;;;;;;;;17.83;71.49;96986.94;30001;983;1875;-62
2021/09/26 00:06:00;;;;;;;;;;;;;;;17.86;71.72;96980.78;30001;983;1880;-62
2021/09/26 00:06:33;;;;;;;;;;;;;;;17.86;71.76;96978.03;30001;987;1854;-60
2021/09/26 00:07:07;;;;;;;;;;;;;;;17.85;71.23;96976.44;30001;983;1854;-60
2021/09/26 00:07:38;;;;;;;;;;;;;;;17.84;71.59;96980.31;30001;983;1854;-61
2021/09/26 00:08:10;;;;;;;;;;;;;;;17.82;71.69;96977.09;30001;983;1876;-61
2021/09/26 00:08:41;;;;;;;;;;;;;;;17.83;71.65;96984.19;30001;982;1876;-63
2021/09/26 00:09:12;;;;;;;;;;;;;;;17.84;71.92;96977.56;30001;982;1880;-61
2021/09/26 00:09:42;;;;;;;;;;;;;;;17.84;71.91;96979.50;30001;982;1876;-61
2021/09/26 00:10:15;;;;;;;;;;;;;;;17.84;71.69;96980.31;30001;982;1859;-62
2021/09/26 00:10:47;;;;;;;;;;;;;;;17.83;71.85;96977.91;30001;971;1873;-63
2021/09/26 00:11:18;;;;;;;;;;;;;;;17.82;72.21;96977.09;30001;983;1884;-61
2021/09/26 00:11:48;;;;;;;;;;;;;;;17.82;71.60;96987.28;30001;983;1880;-60
2021/09/26 00:12:19;;;;;;;;;;;;;;;17.81;71.70;96975.50;30001;983;1884;-60
2021/09/26 00:12:50;;;;;;;;;;;;;;;17.79;71.56;96972.28;30001;983;1880;-62
2021/09/26 00:13:21;;;;;;;;;;;;;;;17.78;71.93;96973.44;30001;983;1884;-62
2021/09/26 00:13:53;;;;;;;;;;;;;;;17.81;71.98;96971.94;30001;983;1880;-62
2021/09/26 00:14:23;;;;;;;;;;;;;;;17.82;72.14;96971.62;30001;983;1884;-63
2021/09/26 00:14:54;;;;;;;;;;;;;;;17.84;72.31;96974.03;30001;983;1880;-63
2021/09/26 00:15:26;;;;;;;;;;;;;;;17.84;72.20;96972.09;30001;983;1884;-61
2021/09/26 00:15:59;;;;;;;;;;;;;;;17.84;72.32;96980.31;30001;968;1880;-62
2021/09/26 00:16:30;;;;;;;;;;;;;;;17.83;72.25;96975.97;30001;982;1880;-62
2021/09/26 00:17:01;;;;;;;;;;;;;;;17.83;72.04;96970.47;30001;982;1858;-61
2021/09/26 00:17:32;;;;;;;;;;;;;;;17.82;71.77;96971.62;30001;982;1880;-61
2021/09/26 00:18:03;;;;;;;;;;;;;;;17.82;71.70;96968.88;30001;982;1881;-61
2021/09/26 00:18:34;;;;;;;;;;;;;;;17.82;71.98;96966.13;30001;983;1884;-61
2021/09/26 00:19:05;;;;;;;;;;;;;;;17.82;71.70;96971.62;30001;983;1880;-61
2021/09/26 00:19:36;;;;;;;;;;;;;;;17.83;72.24;96959.50;30001;983;1884;-61
2021/09/26 00:20:08;;;;;;;;;;;;;;;17.84;72.02;96968.53;30001;983;1880;-61
2021/09/26 00:20:39;;;;;;;;;;;;;;;17.83;72.22;96964.97;30001;983;1884;-59
2021/09/26 00:21:10;;;;;;;;;;;;;;;17.83;71.87;96962.25;30001;983;1880;-59
2021/09/26 00:21:41;;;;;;;;;;;;;;;17.82;72.15;96965.31;30001;983;1884;-61
2021/09/26 00:22:12;;;;;;;;;;;;;;;17.82;71.85;96973.56;30001;983;1858;-61
2021/09/26 00:22:43;;;;;;;;;;;;;;;17.81;71.66;96966.47;30001;982;1880;-61
2021/09/26 00:23:14;;;;;;;;;;;;;;;17.80;71.83;96968.41;30001;982;1880;-60
2021/09/26 00:23:45;;;;;;;;;;;;;;;17.79;71.74;96969.53;30001;982;1884;-61
2021/09/26 00:24:17;;;;;;;;;;;;;;;17.79;71.97;96972.28;30001;982;1880;-62
2021/09/26 00:24:48;;;;;;;;;;;;;;;17.79;71.60;96966.78;30001;982;1863;-61
2021/09/26 00:25:19;;;;;;;;;;;;;;;17.79;72.12;96966.78;30001;978;1890;-62
2021/09/26 00:25:51;;;;;;;;;;;;;;;17.79;72.15;96977.78;30001;982;1885;-60
2021/09/26 00:26:22;;;;;;;;;;;;;;;17.79;72.01;96976.97;30001;983;1880;-61
2021/09/26 00:26:53;;;;;;;;;;;;;;;17.76;72.29;96972.97;30001;983;1884;-62
2021/09/26 00:27:24;;;;;;;;;;;;;;;17.77;71.93;96971.00;30001;983;1880;-62
2021/09/26 00:27:54;;;;;;;;;;;;;;;17.75;72.12;96971.34;30001;983;1884;-61
2021/09/26 00:28:25;;;;;;;;;;;;;;;17.77;72.04;96969.06;30001;983;1880;-59
2021/09/26 00:28:56;;;;;;;;;;;;;;;17.78;72.51;96958.91;30001;983;1884;-61
2021/09/26 00:29:27;;;;;;;;;;;;;;;17.78;72.22;96965.19;30001;983;1880;-61
2021/09/26 00:29:58;;;;;;;;;;;;;;;17.77;72.57;96962.78;30001;983;1863;-61
2021/09/26 00:30:29;;;;;;;;;;;;;;;17.77;72.09;96968.28;30001;982;1805;-62
2021/09/26 00:31:00;;;;;;;;;;;;;;;17.75;72.04;96966.66;30001;982;1863;-61
2021/09/26 00:31:30;;;;;;;;;;;;;;;17.74;72.33;96970.56;30001;982;1876;-59
2021/09/26 00:32:01;;;;;;;;;;;;;;;17.71;72.27;96959.44;30001;982;1885;-62
2021/09/26 00:32:32;;;;;;;;;;;;;;;17.72;72.26;96964.59;30001;982;1880;-60
2021/09/26 00:33:03;;;;;;;;;;;;;;;17.71;72.76;96964.94;30001;982;1885;-61
2021/09/26 00:33:35;;;;;;;;;;;;;;;17.70;72.22;96968.81;30001;983;1880;-61
2021/09/26 00:34:06;;;;;;;;;;;;;;;17.69;72.37;96964.47;30001;983;1884;-62
2021/09/26 00:34:37;;;;;;;;;;;;;;;17.69;72.63;96962.53;30001;983;1880;-62
2021/09/26 00:35:08;;;;;;;;;;;;;;;17.66;72.64;96956.94;30001;983;1884;-61
2021/09/26 00:35:39;;;;;;;;;;;;;;;17.66;72.58;96956.94;30001;983;1858;-62
2021/09/26 00:36:10;;;;;;;;;;;;;;;17.66;72.63;96956.94;30001;983;1880;-61
2021/09/26 00:36:41;;;;;;;;;;;;;;;17.66;72.51;96956.94;30001;983;1880;-59
2021/09/26 00:37:12;;;;;;;;;;;;;;;17.65;72.64;96960.81;30001;983;1884;-62
2021/09/26 00:37:43;;;;;;;;;;;;;;;17.65;72.43;96955.31;30001;983;1880;-62
2021/09/26 00:38:14;;;;;;;;;;;;;;;17.65;72.50;96969.03;30001;982;1884;-62
2021/09/26 00:38:45;;;;;;;;;;;;;;;17.64;73.15;96959.97;30001;982;1881;-61
2021/09/26 00:39:16;;;;;;;;;;;;;;;17.64;72.80;96965.47;30001;982;1885;-61
2021/09/26 00:39:47;;;;;;;;;;;;;;;17.63;72.70;96965.81;30001;982;1880;-62
2021/09/26 00:40:18;;;;;;;;;;;;;;;17.62;72.85;96965.00;30001;982;1885;-61
2021/09/26 00:40:50;;;;;;;;;;;;;;;17.63;73.00;96968.53;30001;982;1859;-62
2021/09/26 00:41:22;;;;;;;;;;;;;;;17.63;72.91;96965.81;30001;983;1858;-62
2021/09/26 00:41:53;;;;;;;;;;;;;;;17.62;72.76;96965.00;30001;983;1880;-61
2021/09/26 00:42:23;;;;;;;;;;;;;;;17.62;73.11;96966.94;30001;983;1884;-61
2021/09/26 00:42:54;;;;;;;;;;;;;;;17.63;73.18;96963.06;30001;983;1880;-61
2021/09/26 00:43:25;;;;;;;;;;;;;;;17.63;73.30;96957.56;30001;983;1884;-62
2021/09/26 00:43:56;;;;;;;;;;;;;;;17.65;73.34;96963.56;30001;983;1880;-59
2021/09/26 00:44:27;;;;;;;;;;;;;;;17.63;73.45;96957.56;30001;983;1884;-61
2021/09/26 00:44:58;;;;;;;;;;;;;;;17.63;72.85;96952.87;30001;983;1880;-62
2021/09/26 00:45:29;;;;;;;;;;;;;;;17.61;72.87;96954.34;30001;982;1885;-61
2021/09/26 00:46:00;;;;;;;;;;;;;;;17.61;73.17;96954.34;30001;982;1880;-61
2021/09/26 00:46:31;;;;;;;;;;;;;;;17.60;73.24;96953.56;30001;982;1863;-62
2021/09/26 00:47:01;;;;;;;;;;;;;;;17.58;73.06;96949.53;30001;962;1828;-60
2021/09/26 00:47:32;;;;;;;;;;;;;;;17.57;73.17;96950.69;30001;982;1885;-62
2021/09/26 00:48:04;;;;;;;;;;;;;;;17.57;73.46;96953.41;30001;982;1880;-62
2021/09/26 00:48:35;;;;;;;;;;;;;;;17.54;73.26;96952.16;30001;982;1885;-62
2021/09/26 00:49:06;;;;;;;;;;;;;;;17.54;72.84;96952.16;30001;982;1880;-61
2021/09/26 00:49:36;;;;;;;;;;;;;;;17.54;73.85;96954.09;30001;983;1884;-61
2021/09/26 00:50:08;;;;;;;;;;;;;;;17.53;73.83;96952.50;30001;983;1858;-62
2021/09/26 00:50:39;;;;;;;;;;;;;;;17.51;73.50;96949.28;30001;983;1880;-60
2021/09/26 00:51:11;;;;;;;;;;;;;;;17.52;73.07;96950.88;30001;983;1880;-61
2021/09/26 00:51:43;;;;;;;;;;;;;;;17.50;73.06;96947.66;30001;983;1885;-64
2021/09/26 00:52:14;;;;;;;;;;;;;;;17.51;73.22;96954.75;30001;983;1880;-62
2021/09/26 00:52:45;;;;;;;;;;;;;;;17.49;73.18;96949.63;30001;983;1884;-61
2021/09/26 00:53:20;;;;;;;;;;;;;;;17.50;73.16;96953.97;30001;982;1880;-62
2021/09/26 00:53:51;;;;;;;;;;;;;;;17.52;73.53;96961.84;30001;982;1863;-61
2021/09/26 00:54:22;;;;;;;;;;;;;;;17.51;73.44;96952.03;30001;982;1876;-62
2021/09/26 00:54:53;;;;;;;;;;;;;;;17.51;73.62;96961.06;30001;982;1885;-61
2021/09/26 00:55:23;;;;;;;;;;;;;;;17.50;73.42;96953.97;30001;983;1880;-60
2021/09/26 00:55:58;;;;;;;;;;;;;;;17.49;74.08;96952.34;30001;983;1884;-61
2021/09/26 00:56:32;;;;;;;;;;;;;;;17.48;73.76;96956.22;30001;983;1880;-59
2021/09/26 00:57:03;;;;;;;;;;;;;;;17.47;73.72;96954.63;30001;983;1862;-62
2021/09/26 00:57:35;;;;;;;;;;;;;;;17.47;73.48;96956.56;30001;983;1875;-61
2021/09/26 00:58:06;;;;;;;;;;;;;;;17.46;73.81;96958.50;30001;983;1884;-60
2021/09/26 00:58:37;;;;;;;;;;;;;;;17.46;73.89;96960.44;30001;983;1880;-62
2021/09/26 00:59:08;;;;;;;;;;;;;;;17.44;73.90;96955.28;30001;983;1884;-62
2021/09/26 00:59:39;;;;;;;;;;;;;;;17.43;74.06;96954.50;30001;983;1880;-62
2021/09/26 01:00:12;;;;;;;;;;;;;;;17.42;73.68;96950.16;30001;983;1885;-62
2021/09/26 01:00:43;;;;;;;;;;;;;;;17.41;73.71;96945.78;30001;982;1880;-62
2021/09/26 01:01:14;;;;;;;;;;;;;;;17.41;73.76;96951.28;30001;982;1885;-61
2021/09/26 01:01:48;;;;;;;;;;;;;;;17.41;74.10;96950.47;30001;982;1858;-62
2021/09/26 01:02:19;;;;;;;;;;;;;;;17.41;73.95;96950.47;30001;982;1880;-60
2021/09/26 01:02:50;;;;;;;;;;;;;;;17.40;73.49;96954.34;30001;982;1880;-62
2021/09/26 01:03:20;;;;;;;;;;;;;;;17.39;73.71;96953.56;30001;983;1884;-60
2021/09/26 01:03:51;;;;;;;;;;;;;;;17.39;73.55;96953.56;30001;983;1880;-61
2021/09/26 01:04:22;;;;;;;;;;;;;;;17.39;73.62;96948.06;30001;983;1884;-62
2021/09/26 01:04:54;;;;;;;;;;;;;;;17.40;73.82;96955.16;30001;983;1880;-62
2021/09/26 01:05:26;;;;;;;;;;;;;;;17.39;73.76;96950.00;30001;983;1884;-61
2021/09/26 01:06:15;;;;;;;;;;;;;;;17.40;73.75;96948.88;30001;983;1858;-60
2021/09/26 01:07:18;;;;;;;;;;;;;;;17.40;74.18;96954.34;30001;983;1871;-62
2021/09/26 01:08:23;;;;;;;;;;;;;;;17.39;74.06;96948.06;30001;983;1876;-61
2021/09/26 01:09:03;;;;;;;;;;;;;;;17.39;73.75;96948.06;30001;982;1858;-59
2021/09/26 01:09:40;;;;;;;;;;;;;;;17.40;73.94;96948.88;30001;982;1876;-59
2021/09/26 01:10:22;;;;;;;;;;;;;;;17.41;73.99;96955.97;30001;982;1885;-61
2021/09/26 01:11:03;;;;;;;;;;;;;;;17.40;73.90;96960.66;30001;983;1880;-62
2021/09/26 01:11:53;;;;;;;;;;;;;;;17.40;74.01;96951.63;30001;983;1884;-63
2021/09/26 01:12:47;;;;;;;;;;;;;;;17.40;74.20;96957.09;30001;983;1871;-61
2021/09/26 01:13:50;;;;;;;;;;;;;;;17.40;73.57;96954.34;30001;983;1858;-62
2021/09/26 01:14:30;;;;;;;;;;;;;;;17.39;74.01;96961.78;30001;983;1849;-60
2021/09/26 01:15:15;;;;;;;;;;;;;;;17.40;73.96;96963.38;30001;983;1884;-63
2021/09/26 01:16:01;;;;;;;;;;;;;;;17.43;74.10;96961.91;30001;982;1880;-60
2021/09/26 01:16:34;;;;;;;;;;;;;;;17.43;74.02;96959.19;30001;982;1885;-61
2021/09/26 01:17:09;;;;;;;;;;;;;;;17.43;73.75;96962.72;30001;982;1858;-62
2021/09/26 01:18:02;;;;;;;;;;;;;;;17.46;73.89;96957.72;30001;982;1881;-61
2021/09/26 01:18:42;;;;;;;;;;;;;;;17.45;74.25;96961.59;30001;983;1875;-62
2021/09/26 01:19:31;;;;;;;;;;;;;;;17.42;73.91;96952.09;30001;983;1884;-59
2021/09/26 01:20:27;;;;;;;;;;;;;;;17.43;74.15;96957.25;30001;971;1869;-61
2021/09/26 01:21:04;;;;;;;;;;;;;;;17.40;73.99;96952.41;30001;983;1875;-62
2021/09/26 01:21:48;;;;;;;;;;;;;;;17.41;74.00;96959.50;30001;983;1880;-61
2021/09/26 01:22:21;;;;;;;;;;;;;;;17.41;74.14;96962.25;30001;983;1863;-59
2021/09/26 01:23:21;;;;;;;;;;;;;;;17.39;74.02;96953.56;30001;983;1854;-59
2021/09/26 01:24:14;;;;;;;;;;;;;;;17.41;74.24;96962.25;30001;982;1880;-61
2021/09/26 01:25:07;;;;;;;;;;;;;;;17.41;74.54;96955.97;30001;982;1859;-61
2021/09/26 01:25:50;;;;;;;;;;;;;;;17.40;74.00;96955.16;30001;983;1853;-62
2021/09/26 01:26:44;;;;;;;;;;;;;;;17.41;74.36;96961.44;30001;983;1880;-61
2021/09/26 01:27:33;;;;;;;;;;;;;;;17.40;74.34;96955.16;30001;983;1880;-61
2021/09/26 01:28:29;;;;;;;;;;;;;;;17.41;74.48;96947.75;30001;983;1767;-61
2021/09/26 01:29:28;;;;;;;;;;;;;;;17.41;74.85;96956.78;30001;983;1880;-62
2021/09/26 01:30:13;;;;;;;;;;;;;;;17.41;74.28;96955.97;30001;982;1876;-61
2021/09/26 01:30:50;;;;;;;;;;;;;;;17.40;74.30;96965.34;30001;982;1863;-61
2021/09/26 01:31:32;;;;;;;;;;;;;;;17.41;74.21;96964.19;30001;982;1876;-58
2021/09/26 01:32:06;;;;;;;;;;;;;;;17.40;74.16;96966.13;30001;982;1885;-63
2021/09/26 01:32:39;;;;;;;;;;;;;;;17.41;74.28;96964.19;30001;982;1881;-62
2021/09/26 01:33:29;;;;;;;;;;;;;;;17.44;74.58;96963.53;30001;983;1884;-60
2021/09/26 01:34:04;;;;;;;;;;;;;;;17.46;74.61;96968.69;30001;983;1880;-61
2021/09/26 01:34:38;;;;;;;;;;;;;;;17.46;74.68;96963.19;30001;983;1884;-62
2021/09/26 01:35:14;;;;;;;;;;;;;;;17.46;75.24;96963.19;30001;983;1880;-61
2021/09/26 01:36:00;;;;;;;;;;;;;;;17.44;75.26;96969.00;30001;983;1862;-61
2021/09/26 01:36:37;;;;;;;;;;;;;;;17.43;75.07;96964.66;30001;983;1854;-61
2021/09/26 01:37:26;;;;;;;;;;;;;;;17.43;74.75;96967.41;30001;983;1884;-62
2021/09/26 01:38:17;;;;;;;;;;;;;;;17.43;74.72;96970.94;30001;982;1880;-61
2021/09/26 01:39:06;;;;;;;;;;;;;;;17.43;74.47;96965.47;30001;982;1863;-60
2021/09/26 01:39:42;;;;;;;;;;;;;;;17.45;74.69;96961.59;30001;982;1876;-62
2021/09/26 01:40:34;;;;;;;;;;;;;;;17.45;74.54;96967.06;30001;982;1885;-62
2021/09/26 01:41:23;;;;;;;;;;;;;;;17.47;74.58;96971.09;30001;983;1880;-62
2021/09/26 01:42:17;;;;;;;;;;;;;;;17.48;74.72;96960.91;30001;983;1875;-63
2021/09/26 01:42:49;;;;;;;;;;;;;;;17.54;75.14;96965.06;30001;983;1875;-60
2021/09/26 01:43:25;;;;;;;;;;;;;;;17.54;75.06;96965.06;30001;983;1885;-57
2021/09/26 01:43:57;;;;;;;;;;;;;;;17.52;74.90;96968.16;30001;983;1858;-62
2021/09/26 01:44:35;;;;;;;;;;;;;;;17.53;74.87;96969.75;30001;983;1880;-62
2021/09/26 01:45:11;;;;;;;;;;;;;;;17.55;74.95;96967.47;30001;982;1880;-63
2021/09/26 01:45:45;;;;;;;;;;;;;;;17.55;74.71;96964.72;30001;982;1885;-60
2021/09/26 01:46:24;;;;;;;;;;;;;;;17.56;74.87;96973.75;30001;982;1880;-60
2021/09/26 01:46:55;;;;;;;;;;;;;;;17.55;74.83;96972.16;30001;982;1863;-62
2021/09/26 01:47:34;;;;;;;;;;;;;;;17.54;74.55;96965.06;30001;982;1876;-62
2021/09/26 01:48:17;;;;;;;;;;;;;;;17.52;74.57;96972.81;30001;982;1885;-61
2021/09/26 01:49:09;;;;;;;;;;;;;;;17.52;74.59;96970.09;30001;983;1880;-61
2021/09/26 01:49:52;;;;;;;;;;;;;;;17.52;74.81;96973.63;30001;983;1884;-60
2021/09/26 01:50:24;;;;;;;;;;;;;;;17.51;74.84;96973.97;30001;983;1880;-60
2021/09/26 01:50:57;;;;;;;;;;;;;;;17.50;74.49;96972.34;30001;983;1863;-62
2021/09/26 01:51:32;;;;;;;;;;;;;;;17.55;74.74;96974.91;30001;983;1876;-62
2021/09/26 01:52:09;;;;;;;;;;;;;;;17.54;75.06;96967.81;30001;961;1907;-62
2021/09/26 01:52:40;;;;;;;;;;;;;;;17.52;74.86;96964.59;30001;982;1880;-62
2021/09/26 01:53:14;;;;;;;;;;;;;;;17.51;74.78;96968.47;30001;982;1885;-62
2021/09/26 01:53:47;;;;;;;;;;;;;;;17.51;74.74;96968.47;30001;982;1858;-60
2021/09/26 01:54:18;;;;;;;;;;;;;;;17.49;74.62;96973.50;30001;982;1880;-59
2021/09/26 01:54:49;;;;;;;;;;;;;;;17.49;74.85;96970.75;30001;982;1880;-62
2021/09/26 01:55:22;;;;;;;;;;;;;;;17.50;75.03;96969.63;30001;982;1885;-62
2021/09/26 01:55:57;;;;;;;;;;;;;;;17.48;74.86;96967.22;30001;983;1880;-64
2021/09/26 01:56:29;;;;;;;;;;;;;;;17.54;75.03;96970.56;30001;983;1862;-64
2021/09/26 01:57:01;;;;;;;;;;;;;;;17.58;75.12;96969.56;30001;983;1854;-62
2021/09/26 01:57:32;;;;;;;;;;;;;;;17.56;74.92;96958.09;30001;983;1884;-61
2021/09/26 01:58:03;;;;;;;;;;;;;;;17.55;74.81;96966.69;30001;983;1880;-60
2021/09/26 01:58:34;;;;;;;;;;;;;;;17.54;74.79;96965.06;30001;983;1884;-62
2021/09/26 01:59:06;;;;;;;;;;;;;;;17.51;74.63;96965.72;30001;983;1880;-61
2021/09/26 01:59:37;;;;;;;;;;;;;;;17.52;74.85;96967.34;30001;983;1884;-62
2021/09/26 02:00:10;;;;;;;;;;;;;;;17.50;75.02;96969.63;30001;982;1880;-59
2021/09/26 02:00:41;;;;;;;;;;;;;;;17.49;75.16;96965.28;30001;982;1885;-62
2021/09/26 02:01:13;;;;;;;;;;;;;;;17.47;75.19;96962.84;30001;982;1858;-62
2021/09/26 02:01:48;;;;;;;;;;;;;;;17.46;75.16;96972.22;30001;982;1881;-60
2021/09/26 02:02:19;;;;;;;;;;;;;;;17.44;75.01;96958.03;30001;982;1880;-61
2021/09/26 02:02:51;;;;;;;;;;;;;;;17.42;75.47;96966.59;30001;983;1884;-62
2021/09/26 02:03:23;;;;;;;;;;;;;;;17.43;74.96;96975.63;30001;983;1880;-61
2021/09/26 02:03:54;;;;;;;;;;;;;;;17.40;75.32;96968.88;30001;983;1884;-63
2021/09/26 02:04:26;;;;;;;;;;;;;;;17.39;75.23;96978.25;30001;983;1858;-61
2021/09/26 02:05:00;;;;;;;;;;;;;;;17.37;75.31;96969.53;30001;983;1880;-62
2021/09/26 02:05:31;;;;;;;;;;;;;;;17.38;75.80;96973.88;30001;983;1858;-63
2021/09/26 02:06:03;;;;;;;;;;;;;;;17.37;75.52;96977.78;30001;983;1880;-61
2021/09/26 02:06:35;;;;;;;;;;;;;;;17.36;75.54;96975.37;30001;983;1880;-62
2021/09/26 02:07:06;;;;;;;;;;;;;;;17.35;75.75;96982.78;30001;983;1884;-60
2021/09/26 02:07:39;;;;;;;;;;;;;;;17.34;75.36;96981.19;30001;982;1880;-62
2021/09/26 02:08:10;;;;;;;;;;;;;;;17.33;75.54;96971.34;30001;982;1885;-63
2021/09/26 02:08:42;;;;;;;;;;;;;;;17.35;75.72;96973.75;30001;982;1880;-61
2021/09/26 02:09:16;;;;;;;;;;;;;;;17.33;76.09;96971.34;30001;982;1885;-62
2021/09/26 02:09:47;;;;;;;;;;;;;;;17.35;75.78;96969.06;30001;982;1880;-63
2021/09/26 02:10:20;;;;;;;;;;;;;;;17.36;76.09;96976.16;30001;983;1884;-62
2021/09/26 02:10:52;;;;;;;;;;;;;;;17.36;75.75;96969.88;30001;983;1858;-60
2021/09/26 02:11:23;;;;;;;;;;;;;;;17.37;75.74;96966.81;30001;983;1880;-63
2021/09/26 02:11:54;;;;;;;;;;;;;;;17.38;75.87;96962.91;30001;983;1858;-62
2021/09/26 02:12:26;;;;;;;;;;;;;;;17.37;75.76;96961.31;30001;983;1880;-63
2021/09/26 02:12:57;;;;;;;;;;;;;;;17.37;75.52;96971.47;30001;983;1880;-62
2021/09/26 02:13:29;;;;;;;;;;;;;;;17.35;76.03;96960.03;30001;983;1884;-63
2021/09/26 02:14:02;;;;;;;;;;;;;;;17.34;75.64;96967.47;30001;983;1880;-64
2021/09/26 02:14:33;;;;;;;;;;;;;;;17.37;75.94;96966.00;30001;983;1884;-61
2021/09/26 02:15:05;;;;;;;;;;;;;;;17.37;75.69;96957.78;30001;982;1880;-63
2021/09/26 02:15:37;;;;;;;;;;;;;;;17.35;75.86;96968.28;30001;982;1885;-63
2021/09/26 02:16:09;;;;;;;;;;;;;;;17.32;75.86;96969.78;30001;982;1880;-63
2021/09/26 02:16:39;;;;;;;;;;;;;;;17.31;75.99;96962.69;30001;982;1885;-61
2021/09/26 02:17:11;;;;;;;;;;;;;;;17.32;76.10;96961.53;30001;982;1859;-62
2021/09/26 02:17:43;;;;;;;;;;;;;;;17.31;76.23;96961.88;30001;983;1879;-62
2021/09/26 02:18:15;;;;;;;;;;;;;;;17.29;75.94;96962.22;30001;983;1880;-62
2021/09/26 02:18:46;;;;;;;;;;;;;;;17.29;76.08;96959.47;30001;983;1884;-62
2021/09/26 02:19:18;;;;;;;;;;;;;;;17.27;76.14;96967.22;30001;983;1880;-62
2021/09/26 02:19:49;;;;;;;;;;;;;;;17.24;76.19;96956.91;30001;983;1884;-58
2021/09/26 02:20:21;;;;;;;;;;;;;;;17.23;76.25;96960.78;30001;983;1880;-61
2021/09/26 02:20:53;;;;;;;;;;;;;;;17.21;76.35;96963.06;30001;983;1862;-62
2021/09/26 02:21:24;;;;;;;;;;;;;;;17.20;76.16;96955.97;30001;983;1854;-60
2021/09/26 02:21:55;;;;;;;;;;;;;;;17.22;76.69;96953.72;30001;983;1884;-63
2021/09/26 02:22:27;;;;;;;;;;;;;;;17.22;76.38;96950.97;30001;983;1880;-63
2021/09/26 02:23:01;;;;;;;;;;;;;;;17.23;76.66;96952.56;30001;982;1885;-63
2021/09/26 02:23:33;;;;;;;;;;;;;;;17.25;76.66;96947.56;30001;982;1880;-63
2021/09/26 02:24:05;;;;;;;;;;;;;;;17.28;76.31;96946.88;30001;982;1885;-62
2021/09/26 02:24:37;;;;;;;;;;;;;;;17.26;76.47;96948.34;30001;982;1880;-61
2021/09/26 02:25:09;;;;;;;;;;;;;;;17.24;76.30;96951.44;30001;983;1884;-61
2021/09/26 02:25:42;;;;;;;;;;;;;;;17.23;76.66;96949.81;30001;983;1858;-60
2021/09/26 02:26:13;;;;;;;;;;;;;;;17.20;76.55;96953.25;30001;983;1880;-59
2021/09/26 02:26:45;;;;;;;;;;;;;;;17.20;76.93;96950.50;30001;983;1880;-59
2021/09/26 02:27:16;;;;;;;;;;;;;;;17.17;76.84;96951.16;30001;983;1884;-62
2021/09/26 02:27:47;;;;;;;;;;;;;;;17.18;76.82;96954.69;30001;983;1880;-61
2021/09/26 02:28:22;;;;;;;;;;;;;;;17.18;76.71;96946.47;30001;983;1884;-61
2021/09/26 02:28:53;;;;;;;;;;;;;;;17.17;76.80;96948.41;30001;983;1880;-62
2021/09/26 02:29:24;;;;;;;;;;;;;;;17.17;76.89;96950.34;30001;983;1884;-63
2021/09/26 02:29:55;;;;;;;;;;;;;;;17.19;76.78;96954.38;30001;983;1880;-61
2021/09/26 02:30:27;;;;;;;;;;;;;;;17.20;76.84;96950.50;30001;982;1863;-61
2021/09/26 02:30:58;;;;;;;;;;;;;;;17.20;76.94;96946.94;30001;982;1876;-61
2021/09/26 02:31:29;;;;;;;;;;;;;;;17.18;76.92;96952.75;30001;982;1885;-62
2021/09/26 02:32:00;;;;;;;;;;;;;;;17.19;76.70;96945.34;30001;982;1880;-61
2021/09/26 02:32:31;;;;;;;;;;;;;;;17.16;76.86;96944.06;30001;982;1885;-63
2021/09/26 02:33:02;;;;;;;;;;;;;;;17.15;76.86;96947.94;30001;983;1858;-63
2021/09/26 02:33:34;;;;;;;;;;;;;;;17.16;76.99;96943.25;30001;983;1880;-62
2021/09/26 02:34:08;;;;;;;;;;;;;;;17.18;76.91;96941.00;30001;983;1880;-64
2021/09/26 02:34:39;;;;;;;;;;;;;;;17.18;77.05;96947.28;30001;983;1884;-61
2021/09/26 02:35:13;;;;;;;;;;;;;;;17.20;76.93;96944.22;30001;983;1880;-62
2021/09/26 02:35:44;;;;;;;;;;;;;;;17.18;76.93;96951.97;30001;983;1884;-61
2021/09/26 02:36:16;;;;;;;;;;;;;;;17.16;76.72;96944.06;30001;983;1880;-62
2021/09/26 02:36:47;;;;;;;;;;;;;;;17.17;76.78;96945.69;30001;983;1884;-62
2021/09/26 02:37:18;;;;;;;;;;;;;;;17.17;77.00;96948.41;30001;982;1858;-61
2021/09/26 02:37:49;;;;;;;;;;;;;;;17.16;76.86;96952.28;30001;982;1880;-62
2021/09/26 02:38:20;;;;;;;;;;;;;;;17.16;77.08;96948.75;30001;982;1880;-62
2021/09/26 02:38:52;;;;;;;;;;;;;;;17.14;76.84;96960.03;30001;982;1885;-61
2021/09/26 02:39:23;;;;;;;;;;;;;;;17.13;76.75;96954.91;30001;982;1880;-62
2021/09/26 02:39:54;;;;;;;;;;;;;;;17.13;77.09;96961.19;30001;982;1885;-62
2021/09/26 02:40:27;;;;;;;;;;;;;;;17.12;76.76;96967.81;30001;983;1880;-63
2021/09/26 02:41:02;;;;;;;;;;;;;;;17.11;77.00;96966.19;30001;982;1884;-62
2021/09/26 02:41:39;;;;;;;;;;;;;;;17.10;76.87;96972.81;30001;983;1880;-61
2021/09/26 02:42:26;;;;;;;;;;;;;;;17.12;76.96;96976.03;30001;983;1862;-61
2021/09/26 02:43:17;;;;;;;;;;;;;;;17.15;77.08;96975.37;30001;983;1876;-64
2021/09/26 02:43:54;;;;;;;;;;;;;;;17.15;77.24;96977.31;30001;983;1880;-62
2021/09/26 02:44:44;;;;;;;;;;;;;;;17.12;77.00;96978.78;30001;982;1880;-61
2021/09/26 02:45:22;;;;;;;;;;;;;;;17.10;77.04;96972.81;30001;982;1876;-61
2021/09/26 02:45:59;;;;;;;;;;;;;;;17.08;77.20;96972.34;30001;982;1880;-60
2021/09/26 02:46:32;;;;;;;;;;;;;;;17.05;77.32;96971.06;30001;982;1885;-61
2021/09/26 02:47:08;;;;;;;;;;;;;;;17.05;77.34;96976.53;30001;982;1859;-59
2021/09/26 02:47:42;;;;;;;;;;;;;;;17.05;77.43;96964.78;30001;982;1859;-61
2021/09/26 02:48:18;;;;;;;;;;;;;;;17.04;77.31;96971.41;30001;983;1880;-62
2021/09/26 02:48:49;;;;;;;;;;;;;;;17.08;77.53;96970.41;30001;983;1884;-62
2021/09/26 02:49:20;;;;;;;;;;;;;;;17.10;77.00;96967.34;30001;983;1880;-62
2021/09/26 02:49:52;;;;;;;;;;;;;;;17.11;76.88;96962.66;30001;983;1862;-62
2021/09/26 02:50:24;;;;;;;;;;;;;;;17.10;76.86;96970.06;30001;983;1876;-61
2021/09/26 02:51:00;;;;;;;;;;;;;;;17.08;77.07;96969.59;30001;983;1884;-61
2021/09/26 02:51:31;;;;;;;;;;;;;;;17.05;77.14;96964.78;30001;983;1880;-62
2021/09/26 02:52:06;;;;;;;;;;;;;;;17.03;77.35;96972.53;30001;982;1885;-59
2021/09/26 02:52:38;;;;;;;;;;;;;;;17.01;77.12;96963.84;30001;982;1880;-62
2021/09/26 02:53:09;;;;;;;;;;;;;;;16.98;77.48;96970.00;30001;982;1885;-61
2021/09/26 02:53:41;;;;;;;;;;;;;;;16.96;77.42;96966.78;30001;982;1880;-62
2021/09/26 02:54:14;;;;;;;;;;;;;;;16.95;77.80;96970.66;30001;982;1885;-61
2021/09/26 02:54:46;;;;;;;;;;;;;;;16.98;77.57;96968.03;30001;982;1880;-63
2021/09/26 02:55:17;;;;;;;;;;;;;;;16.96;77.59;96966.78;30001;982;1863;-61
2021/09/26 02:55:48;;;;;;;;;;;;;;;16.95;77.59;96970.66;30001;983;1875;-60
2021/09/26 02:56:20;;;;;;;;;;;;;;;16.90;78.32;96962.63;30001;983;1884;-63
2021/09/26 02:56:51;;;;;;;;;;;;;;;16.89;77.86;96972.00;30001;983;1880;-62
2021/09/26 02:57:23;;;;;;;;;;;;;;;16.86;78.39;96958.94;30001;983;1884;-62
2021/09/26 02:57:54;;;;;;;;;;;;;;;16.87;78.03;96963.28;30001;983;1880;-61
2021/09/26 02:58:25;;;;;;;;;;;;;;;16.88;78.25;96959.41;30001;983;1838;-62
2021/09/26 02:59:00;;;;;;;;;;;;;;;16.87;78.21;96960.56;30001;983;1876;-62
2021/09/26 02:59:31;;;;;;;;;;;;;;;16.89;78.57;96961.03;30001;982;1885;-62
2021/09/26 03:00:06;;;;;;;;;;;;;;;16.87;78.57;96955.88;30001;982;1880;-61
2021/09/26 03:00:38;;;;;;;;;;;;;;;16.86;78.55;96953.47;30001;982;1884;-62
2021/09/26 03:01:09;;;;;;;;;;;;;;;16.84;78.37;96953.00;30001;982;1880;-61
2021/09/26 03:01:53;;;;;;;;;;;;;;;16.81;78.38;96954.47;30001;982;1850;-62
2021/09/26 03:02:30;;;;;;;;;;;;;;;16.80;78.47;96955.59;30001;982;1881;-61
2021/09/26 03:03:09;;;;;;;;;;;;;;;16.78;78.50;96944.16;30001;983;1884;-62
2021/09/26 03:03:40;;;;;;;;;;;;;;;16.79;78.48;96950.44;30001;983;1858;-62